createdAt,value
2018-02-22T00:00:26.263Z,35.87
2018-02-22T00:02:53.907Z,34.67
2018-02-22T00:05:21.480Z,36.00
2018-02-22T00:07:49.130Z,34.67
2018-02-22T00:10:16.699Z,35.00
2018-02-22T00:12:44.286Z,34.17
2018-02-22T00:15:12.613Z,33.97
2018-02-22T00:17:40.168Z,36.97
2018-02-22T00:20:07.746Z,35.97
2018-02-22T00:22:35.320Z,35.43
2018-02-22T00:25:03.694Z,35.37
2018-02-22T00:27:31.271Z,33.50
2018-02-22T00:29:58.820Z,33.73
2018-02-22T00:32:26.414Z,34.57
2018-02-22T00:34:54.765Z,36.07
2018-02-22T00:37:22.427Z,35.77
2018-02-22T00:39:50.004Z,35.03
2018-02-22T00:42:17.568Z,35.23
2018-02-22T00:44:45.906Z,34.97
2018-02-22T00:47:13.463Z,35.13
2018-02-22T00:49:41.147Z,34.03
2018-02-22T00:52:08.813Z,34.93
2018-02-22T00:54:36.544Z,35.87
2018-02-22T00:57:04.117Z,35.53
2018-02-22T00:59:31.672Z,34.27
2018-02-22T01:01:59.264Z,34.87
2018-02-22T01:04:26.883Z,34.90
2018-02-22T01:06:55.175Z,33.07
2018-02-22T01:09:22.739Z,34.67
2018-02-22T01:11:50.417Z,35.23
2018-02-22T01:14:18.069Z,35.93
2018-02-22T01:16:45.705Z,35.63
2018-02-22T01:19:13.386Z,34.60
2018-02-22T01:21:40.938Z,34.60
2018-02-22T01:24:08.530Z,35.23
2018-02-22T01:26:36.107Z,34.07
2018-02-22T01:29:03.760Z,33.90
2018-02-22T01:31:31.424Z,36.23
2018-02-22T01:33:59.078Z,37.07
2018-02-22T01:36:26.631Z,35.43
2018-02-22T01:38:54.301Z,34.70
2018-02-22T01:41:21.868Z,35.70
2018-02-22T01:43:49.421Z,35.00
2018-02-22T01:46:16.983Z,37.27
2018-02-22T01:48:44.553Z,34.57
2018-02-22T01:51:12.215Z,34.53
2018-02-22T01:53:39.770Z,34.40
2018-02-22T01:56:07.434Z,35.23
2018-02-22T01:58:35.096Z,35.00
2018-02-22T02:01:02.651Z,34.37
2018-02-22T02:03:30.228Z,35.63
2018-02-22T02:05:57.887Z,35.23
2018-02-22T02:08:25.436Z,35.57
2018-02-22T02:10:53.002Z,36.57
2018-02-22T02:13:20.562Z,35.97
2018-02-22T02:15:48.115Z,37.07
2018-02-22T02:18:15.782Z,35.10
2018-02-22T02:20:43.463Z,35.63
2018-02-22T02:23:12.625Z,38.10
2018-02-22T02:25:40.289Z,35.90
2018-02-22T02:28:07.852Z,34.80
2018-02-22T02:30:35.427Z,34.87
2018-02-22T02:33:03.092Z,36.13
2018-02-22T02:35:30.657Z,35.43
2018-02-22T02:37:58.316Z,37.10
2018-02-22T02:40:25.896Z,36.13
2018-02-22T02:42:53.448Z,36.10
2018-02-22T02:45:21.006Z,36.40
2018-02-22T02:47:48.663Z,36.73
2018-02-22T02:50:16.212Z,35.87
2018-02-22T02:52:43.796Z,35.60
2018-02-22T02:55:11.464Z,37.47
2018-02-22T02:57:39.036Z,36.30
2018-02-22T03:00:06.692Z,36.20
2018-02-22T03:02:34.247Z,36.50
2018-02-22T03:05:01.901Z,35.03
2018-02-22T03:07:29.466Z,36.27
2018-02-22T03:09:57.018Z,35.57
2018-02-22T03:12:24.680Z,35.97
2018-02-22T03:14:52.247Z,34.77
2018-02-22T03:17:19.813Z,37.33
2018-02-22T03:19:47.462Z,35.47
2018-02-22T03:22:15.012Z,35.27
2018-02-22T03:24:42.583Z,36.53
2018-02-22T03:27:10.150Z,35.40
2018-02-22T03:29:37.808Z,38.07
2018-02-22T03:32:05.372Z,34.63
2018-02-22T03:34:32.927Z,35.33
2018-02-22T03:37:00.466Z,36.23
2018-02-22T03:39:28.014Z,36.03
2018-02-22T03:41:55.575Z,35.80
2018-02-22T03:44:23.188Z,35.73
2018-02-22T03:46:50.756Z,34.10
2018-02-22T03:49:18.402Z,37.03
2018-02-22T03:51:46.045Z,34.53
2018-02-22T03:54:13.711Z,35.50
2018-02-22T03:56:41.281Z,35.43
2018-02-22T03:59:08.831Z,33.20
2018-02-22T04:01:36.398Z,33.63
2018-02-22T04:04:03.951Z,34.70
2018-02-22T04:06:31.500Z,34.33
2018-02-22T04:08:59.064Z,37.07
2018-02-22T04:11:26.632Z,35.57
2018-02-22T04:13:54.210Z,38.37
2018-02-22T04:16:21.883Z,35.63
2018-02-22T04:18:49.446Z,38.13
2018-02-22T04:21:17.011Z,35.60
2018-02-22T04:23:44.554Z,36.00
2018-02-22T04:26:12.118Z,35.60
2018-02-22T04:28:39.690Z,34.50
2018-02-22T04:31:07.347Z,34.93
2018-02-22T04:33:34.908Z,34.77
2018-02-22T04:36:02.476Z,34.57
2018-02-22T04:38:30.033Z,36.00
2018-02-22T04:40:57.595Z,35.43
2018-02-22T04:43:25.251Z,34.27
2018-02-22T04:45:52.801Z,36.57
2018-02-22T04:48:20.350Z,34.73
2018-02-22T04:50:47.920Z,34.20
2018-02-22T04:53:15.483Z,33.90
2018-02-22T04:55:43.053Z,32.53
2018-02-22T04:58:10.738Z,33.73
2018-02-22T05:00:38.378Z,33.70
2018-02-22T05:03:05.928Z,33.87
2018-02-22T05:05:33.493Z,34.60
2018-02-22T05:08:01.063Z,32.87
2018-02-22T05:10:28.627Z,32.87
2018-02-22T05:12:56.193Z,35.33
2018-02-22T05:15:23.769Z,31.83
2018-02-22T05:17:52.841Z,33.63
2018-02-22T05:20:20.397Z,33.70
2018-02-22T05:22:48.071Z,33.63
2018-02-22T05:25:15.647Z,33.17
2018-02-22T05:27:43.293Z,32.77
2018-02-22T05:30:10.961Z,33.40
2018-02-22T05:32:38.532Z,33.07
2018-02-22T05:35:06.083Z,31.87
2018-02-22T05:37:33.645Z,32.87
2018-02-22T05:40:01.197Z,32.77
2018-02-22T05:42:28.806Z,33.63
2018-02-22T05:44:56.440Z,32.47
2018-02-22T05:47:54.516Z,31.57
2018-02-22T05:50:22.116Z,31.67
2018-02-22T05:52:49.679Z,32.67
2018-02-22T05:55:17.374Z,32.07
2018-02-22T05:57:45.058Z,32.23
2018-02-22T06:00:12.628Z,32.17
2018-02-22T06:02:40.284Z,31.53
2018-02-22T06:05:07.934Z,31.07
2018-02-22T06:07:35.487Z,30.97
2018-02-22T06:10:03.052Z,30.77
2018-02-22T06:12:30.634Z,31.00
2018-02-22T06:14:58.212Z,29.60
2018-02-22T06:17:25.778Z,34.27
2018-02-22T06:19:54.127Z,30.13
2018-02-22T06:22:21.681Z,29.17
2018-02-22T06:24:49.230Z,30.27
2018-02-22T06:27:16.812Z,30.07
2018-02-22T06:29:44.379Z,30.13
2018-02-22T06:32:11.937Z,29.70
2018-02-22T06:34:39.538Z,30.83
2018-02-22T06:37:07.144Z,31.00
2018-02-22T06:39:34.719Z,28.20
2018-02-22T06:42:02.296Z,29.93
2018-02-22T06:44:29.864Z,28.37
2018-02-22T06:46:57.435Z,28.73
2018-02-22T06:49:25.760Z,28.93
2018-02-22T06:51:53.343Z,30.20
2018-02-22T06:54:20.937Z,30.20
2018-02-22T06:56:49.285Z,28.53
2018-02-22T06:59:16.840Z,29.77
2018-02-22T07:01:44.400Z,28.97
2018-02-22T07:04:12.075Z,28.23
2018-02-22T07:06:40.453Z,29.20
2018-02-22T07:09:08.025Z,28.93
2018-02-22T07:11:35.602Z,28.67
2018-02-22T07:14:03.924Z,30.80
2018-02-22T07:16:31.478Z,28.90
2018-02-22T07:18:59.057Z,30.43
2018-02-22T07:21:26.611Z,29.00
2018-02-22T07:23:54.163Z,28.23
2018-02-22T07:26:21.743Z,27.90
2018-02-22T07:28:49.425Z,28.57
2018-02-22T07:31:18.480Z,26.37
2018-02-22T07:33:46.063Z,29.03
2018-02-22T07:36:13.609Z,27.77
2018-02-22T07:38:41.172Z,27.43
2018-02-22T07:41:08.750Z,27.57
2018-02-22T07:43:36.320Z,27.27
2018-02-22T07:46:03.974Z,26.90
2018-02-22T07:48:31.645Z,27.00
2018-02-22T07:50:59.310Z,25.17
2018-02-22T07:53:26.880Z,27.40
2018-02-22T07:55:54.545Z,25.77
2018-02-22T07:58:22.863Z,26.73
2018-02-22T08:00:50.417Z,25.33
2018-02-22T08:03:18.849Z,24.60
2018-02-22T08:05:46.399Z,25.70
2018-02-22T08:08:13.967Z,24.87
2018-02-22T08:10:41.535Z,25.20
2018-02-22T08:13:09.206Z,25.03
2018-02-22T08:15:36.859Z,23.73
2018-02-22T08:18:04.531Z,24.03
2018-02-22T08:20:32.189Z,23.73
2018-02-22T08:22:59.742Z,23.43
2018-02-22T08:25:27.414Z,25.30
2018-02-22T08:27:55.002Z,25.50
2018-02-22T08:30:23.347Z,25.13
2018-02-22T08:32:50.989Z,24.60
2018-02-22T08:35:18.544Z,23.70
2018-02-22T08:37:46.135Z,22.60
2018-02-22T08:40:13.727Z,23.03
2018-02-22T08:42:42.053Z,23.07
2018-02-22T08:45:09.634Z,23.27
2018-02-22T08:47:37.198Z,23.23
2018-02-22T08:50:04.747Z,22.73
2018-02-22T08:52:32.336Z,21.67
2018-02-22T08:54:59.924Z,23.73
2018-02-22T08:57:28.347Z,24.10
2018-02-22T08:59:55.916Z,23.00
2018-02-22T09:02:23.574Z,22.77
2018-02-22T09:04:51.127Z,21.83
2018-02-22T09:07:18.730Z,23.00
2018-02-22T09:09:46.382Z,21.90
2018-02-22T09:12:13.933Z,20.93
2018-02-22T09:14:41.602Z,21.53
2018-02-22T09:17:09.178Z,20.73
2018-02-22T09:19:36.744Z,20.03
2018-02-22T09:22:05.071Z,20.60
2018-02-22T09:24:32.649Z,20.70
2018-02-22T09:27:00.206Z,19.67
2018-02-22T09:29:27.779Z,20.87
2018-02-22T09:31:55.356Z,19.20
2018-02-22T09:34:22.924Z,20.40
2018-02-22T09:36:50.479Z,19.97
2018-02-22T09:39:18.837Z,19.07
2018-02-22T09:41:47.366Z,19.03
2018-02-22T09:44:14.960Z,18.27
2018-02-22T09:46:42.557Z,17.30
2018-02-22T09:49:10.108Z,17.80
2018-02-22T09:51:37.668Z,18.10
2018-02-22T09:54:05.320Z,16.87
2018-02-22T09:56:32.885Z,18.50
2018-02-22T09:59:00.451Z,17.00
2018-02-22T10:01:28.005Z,16.20
2018-02-22T10:03:55.546Z,17.90
2018-02-22T10:06:23.103Z,17.67
2018-02-22T10:08:50.678Z,18.80
2018-02-22T10:11:18.236Z,17.10
2018-02-22T10:13:45.802Z,17.37
2018-02-22T10:16:13.382Z,16.87
2018-02-22T10:18:40.932Z,17.07
2018-02-22T10:21:08.495Z,17.63
2018-02-22T10:23:36.054Z,17.40
2018-02-22T10:26:03.603Z,15.70
2018-02-22T10:28:31.155Z,16.83
2018-02-22T10:30:58.724Z,16.30
2018-02-22T10:33:26.327Z,16.80
2018-02-22T10:35:53.878Z,15.93
2018-02-22T10:38:21.522Z,16.33
2018-02-22T10:40:49.080Z,16.23
2018-02-22T10:43:16.639Z,15.47
2018-02-22T10:45:44.183Z,15.07
2018-02-22T10:48:11.786Z,14.27
2018-02-22T10:50:39.379Z,15.03
2018-02-22T10:53:07.816Z,15.17
2018-02-22T10:55:35.359Z,14.00
2018-02-22T10:58:02.958Z,13.20
2018-02-22T11:00:36.305Z,14.10
2018-02-22T11:03:03.854Z,14.23
2018-02-22T11:05:31.397Z,13.20
2018-02-22T11:07:59.834Z,13.13
2018-02-22T11:10:27.386Z,13.57
2018-02-22T11:12:54.951Z,14.40
2018-02-22T11:15:22.520Z,14.97
2018-02-22T11:17:50.079Z,13.57
2018-02-22T11:20:17.750Z,12.97
2018-02-22T11:22:45.413Z,11.23
2018-02-22T11:25:12.963Z,12.70
2018-02-22T11:27:40.629Z,12.70
2018-02-22T11:30:08.202Z,13.43
2018-02-22T11:32:36.593Z,11.97
2018-02-22T11:35:04.147Z,13.03
2018-02-22T11:37:31.715Z,12.23
2018-02-22T11:40:00.793Z,13.67
2018-02-22T11:42:28.343Z,13.63
2018-02-22T11:44:56.026Z,12.70
2018-02-22T11:47:23.592Z,12.27
2018-02-22T11:49:51.132Z,12.23
2018-02-22T11:52:18.800Z,11.47
2018-02-22T11:54:46.469Z,11.10
2018-02-22T11:57:14.047Z,12.23
2018-02-22T11:59:42.394Z,12.13
2018-02-22T12:02:09.954Z,11.90
2018-02-22T12:04:37.510Z,12.37
2018-02-22T12:07:05.086Z,12.67
2018-02-22T12:09:32.646Z,12.40
2018-02-22T12:12:00.309Z,11.97
2018-02-22T12:14:27.889Z,11.53
2018-02-22T12:16:55.443Z,11.33
2018-02-22T12:19:23.028Z,11.87
2018-02-22T12:21:50.595Z,12.40
2018-02-22T12:24:19.016Z,12.07
2018-02-22T12:26:46.576Z,11.40
2018-02-22T12:29:14.253Z,10.83
2018-02-22T12:31:41.902Z,11.00
2018-02-22T12:34:09.468Z,11.90
2018-02-22T12:36:37.034Z,11.73
2018-02-22T12:39:04.696Z,13.43
2018-02-22T12:41:32.349Z,12.93
2018-02-22T12:43:59.915Z,11.70
2018-02-22T12:46:27.476Z,12.10
2018-02-22T12:48:55.040Z,11.83
2018-02-22T12:51:22.607Z,12.17
2018-02-22T12:53:50.174Z,12.73
2018-02-22T12:56:17.773Z,10.93
2018-02-22T12:58:45.333Z,11.10
2018-02-22T13:01:13.669Z,10.70
2018-02-22T13:03:41.319Z,10.40
2018-02-22T13:06:08.911Z,10.30
2018-02-22T13:08:36.477Z,10.97
2018-02-22T13:11:04.800Z,10.53
2018-02-22T13:16:05.371Z,10.00
2018-02-22T13:18:32.921Z,10.37
2018-02-22T13:21:00.471Z,9.10
2018-02-22T13:23:28.047Z,9.30
2018-02-22T13:25:55.721Z,10.37
2018-02-22T13:28:23.276Z,11.23
2018-02-22T13:30:50.829Z,12.00
2018-02-22T13:33:30.273Z,12.97
2018-02-22T13:35:57.835Z,14.47
2018-02-22T13:38:37.248Z,15.33
2018-02-22T13:41:04.818Z,15.40
2018-02-22T13:43:32.391Z,15.87
2018-02-22T13:46:00.069Z,15.47
2018-02-22T13:48:39.502Z,14.70
2018-02-22T13:51:11.589Z,15.57
2018-02-22T13:53:39.945Z,14.60
2018-02-22T13:56:07.581Z,15.63
2018-02-22T13:58:35.149Z,15.20
2018-02-22T14:01:14.544Z,15.17
2018-02-22T14:03:42.874Z,14.93
2018-02-22T14:06:10.439Z,14.37
2018-02-22T14:08:45.986Z,14.90
2018-02-22T14:11:13.641Z,14.30
2018-02-22T14:13:41.191Z,13.17
2018-02-22T14:16:08.776Z,13.40
2018-02-22T14:18:36.321Z,13.60
2018-02-22T14:21:03.884Z,12.63
2018-02-22T14:23:31.460Z,12.63
2018-02-22T14:25:59.054Z,12.60
2018-02-22T14:28:27.368Z,12.23
2018-02-22T14:30:54.946Z,12.13
2018-02-22T14:33:22.502Z,12.13
2018-02-22T14:35:50.075Z,10.80
2018-02-22T14:38:17.650Z,12.33
2018-02-22T14:40:45.221Z,11.40
2018-02-22T14:43:13.540Z,9.93
2018-02-22T14:45:41.122Z,10.07
2018-02-22T14:48:08.677Z,10.43
2018-02-22T14:50:36.248Z,10.90
2018-02-22T14:53:03.841Z,10.60
2018-02-22T14:55:32.992Z,10.10
2018-02-22T14:58:00.524Z,9.17
2018-02-22T15:00:28.112Z,8.73
2018-02-22T15:02:55.649Z,9.40
2018-02-22T15:05:23.201Z,10.00
2018-02-22T15:07:51.629Z,9.00
2018-02-22T15:10:19.298Z,10.10
2018-02-22T15:12:46.853Z,9.33
2018-02-22T15:15:14.400Z,9.83
2018-02-22T15:17:41.952Z,9.57
2018-02-22T15:20:09.533Z,10.07
2018-02-22T15:22:37.100Z,9.37
2018-02-22T15:25:04.711Z,9.60
2018-02-22T15:27:33.026Z,8.97
2018-02-22T15:30:00.591Z,8.37
2018-02-22T15:32:28.148Z,9.17
2018-02-22T15:34:55.806Z,8.07
2018-02-22T15:37:23.404Z,9.23
2018-02-22T15:39:51.039Z,8.50
2018-02-22T15:42:18.691Z,9.43
2018-02-22T15:44:46.255Z,9.10
2018-02-22T15:47:13.812Z,8.67
2018-02-22T15:49:41.357Z,9.27
2018-02-22T15:52:08.933Z,9.23
2018-02-22T15:54:36.498Z,9.30
2018-02-22T15:57:04.049Z,9.20
2018-02-22T15:59:31.644Z,9.10
2018-02-22T16:01:59.202Z,8.47
2018-02-22T16:04:26.764Z,9.60
2018-02-22T16:06:54.334Z,8.63
2018-02-22T16:09:22.671Z,8.80
2018-02-22T16:11:50.238Z,8.10
2018-02-22T16:14:17.903Z,8.27
2018-02-22T16:16:45.459Z,7.80
2018-02-22T16:19:13.099Z,7.80
2018-02-22T16:21:40.680Z,7.77
2018-02-22T16:24:08.259Z,7.73
2018-02-22T16:26:35.820Z,6.60
2018-02-22T16:29:03.392Z,6.93
2018-02-22T16:31:30.941Z,6.70
2018-02-22T16:33:58.506Z,6.77
2018-02-22T16:36:26.159Z,7.40
2018-02-22T16:38:53.718Z,7.80
2018-02-22T16:41:21.281Z,7.70
2018-02-22T16:43:48.830Z,7.27
2018-02-22T16:46:16.417Z,7.50
2018-02-22T16:48:44.768Z,7.67
2018-02-22T16:51:12.437Z,7.73
2018-02-22T16:53:40.096Z,7.60
2018-02-22T16:56:07.652Z,8.43
2018-02-22T16:58:35.216Z,7.97
2018-02-22T17:01:02.773Z,8.23
2018-02-22T17:03:30.331Z,7.30
2018-02-22T17:05:57.910Z,7.40
2018-02-22T17:08:25.503Z,8.03
2018-02-22T17:10:53.045Z,7.87
2018-02-22T17:13:20.614Z,7.53
2018-02-22T17:15:48.964Z,7.23
2018-02-22T17:18:16.521Z,7.63
2018-02-22T17:20:44.078Z,7.77
2018-02-22T17:23:11.645Z,8.37
2018-02-22T17:25:38.721Z,8.87
2018-02-22T17:28:12.067Z,8.47
2018-02-22T17:30:45.335Z,8.93
2018-02-22T17:33:13.763Z,9.53
2018-02-22T17:35:47.053Z,10.93
2018-02-22T17:41:14.039Z,8.10
2018-02-22T17:43:41.631Z,9.07
2018-02-22T17:46:09.965Z,8.73
2018-02-22T17:48:37.527Z,8.93
2018-02-22T17:51:05.185Z,8.77
2018-02-22T17:53:32.737Z,8.63
2018-02-22T17:56:00.283Z,9.17
2018-02-22T17:58:27.846Z,8.60
2018-02-22T18:00:55.412Z,9.33
2018-02-22T18:03:22.965Z,9.80
2018-02-22T18:05:50.552Z,9.77
2018-02-22T18:08:18.102Z,10.03
2018-02-22T18:10:45.675Z,9.80
2018-02-22T18:13:13.249Z,9.53
2018-02-22T18:15:40.811Z,9.60
2018-02-22T18:18:08.565Z,9.00
2018-02-22T18:20:36.122Z,10.27
2018-02-22T18:23:03.680Z,9.27
2018-02-22T18:25:31.248Z,10.43
2018-02-22T18:27:58.968Z,10.83
2018-02-22T18:30:26.537Z,10.40
2018-02-22T18:32:54.099Z,10.40
2018-02-22T18:35:21.668Z,9.87
2018-02-22T18:37:54.930Z,10.03
2018-02-22T18:40:28.908Z,11.00
2018-02-22T18:42:56.484Z,11.60
2018-02-22T18:45:24.825Z,9.90
2018-02-22T18:47:52.417Z,11.07
2018-02-22T18:50:20.763Z,11.37
2018-02-22T18:52:48.340Z,10.50
2018-02-22T18:55:16.783Z,11.43
2018-02-22T18:57:44.342Z,12.17
2018-02-22T19:00:11.906Z,11.90
2018-02-22T19:02:39.525Z,12.40
2018-02-22T19:05:07.853Z,12.10
2018-02-22T19:07:35.443Z,12.40
2018-02-22T19:10:03.016Z,12.10
2018-02-22T19:12:31.344Z,13.27
2018-02-22T19:14:58.897Z,12.07
2018-02-22T19:17:26.487Z,12.23
2018-02-22T19:19:54.161Z,14.07
2018-02-22T19:22:21.821Z,13.50
2018-02-22T19:24:49.396Z,16.70
2018-02-22T19:27:16.947Z,18.63
2018-02-22T19:29:44.499Z,13.73
2018-02-22T19:32:12.131Z,13.87
2018-02-22T19:34:40.575Z,14.70
2018-02-22T19:37:08.937Z,14.00
2018-02-22T19:39:36.512Z,15.37
2018-02-22T19:42:05.077Z,15.60
2018-02-22T19:44:32.652Z,14.47
2018-02-22T19:47:01.045Z,13.80
2018-02-22T19:49:29.454Z,15.40
2018-02-22T19:51:56.995Z,15.33
2018-02-22T19:54:25.338Z,15.10
2018-02-22T19:56:52.888Z,15.27
2018-02-22T19:59:21.264Z,14.63
2018-02-22T20:01:48.927Z,15.10
2018-02-22T20:04:16.482Z,14.63
2018-02-22T20:06:44.222Z,15.20
2018-02-22T20:09:11.834Z,15.50
2018-02-22T20:11:40.213Z,15.43
2018-02-22T20:14:08.539Z,16.40
2018-02-22T20:16:36.100Z,16.40
2018-02-22T20:19:03.651Z,15.50
2018-02-22T20:21:31.246Z,16.47
2018-02-22T20:23:58.941Z,16.63
2018-02-22T20:26:27.293Z,15.23
2018-02-22T20:28:54.863Z,16.17
2018-02-22T20:31:22.439Z,16.07
2018-02-22T20:33:50.771Z,16.33
2018-02-22T20:36:18.320Z,16.27
2018-02-22T20:38:45.889Z,16.37
2018-02-22T20:41:13.444Z,16.57
2018-02-22T20:43:40.997Z,16.77
2018-02-22T20:46:08.600Z,17.03
2018-02-22T20:48:36.147Z,16.37
2018-02-22T20:51:07.358Z,16.70
2018-02-22T20:53:35.510Z,16.57
2018-02-22T20:56:06.494Z,16.63
2018-02-22T20:58:35.039Z,16.43
2018-02-22T21:01:02.624Z,16.10
2018-02-22T21:03:33.178Z,17.03
2018-02-22T21:06:00.776Z,16.20
2018-02-22T21:08:29.110Z,15.83
2018-02-22T21:10:56.695Z,15.47
2018-02-22T21:13:24.278Z,15.40
2018-02-22T21:15:52.677Z,16.27
2018-02-22T21:18:20.236Z,16.43
2018-02-22T21:20:47.819Z,16.07
2018-02-22T21:23:15.371Z,16.27
2018-02-22T21:25:42.978Z,16.10
2018-02-22T21:28:10.574Z,16.37
2018-02-22T21:30:38.889Z,17.20
2018-02-22T21:33:06.476Z,16.57
2018-02-22T21:35:34.133Z,16.80
2018-02-22T21:38:01.671Z,16.30
2018-02-22T21:40:29.337Z,16.60
2018-02-22T21:42:56.923Z,17.03
2018-02-22T21:45:24.478Z,17.73
2018-02-22T21:47:52.089Z,16.80
2018-02-22T21:50:19.644Z,17.07
2018-02-22T21:52:47.963Z,16.93
2018-02-22T21:55:15.544Z,16.07
2018-02-22T21:57:43.123Z,16.70
2018-02-22T22:00:10.682Z,17.23
2018-02-22T22:02:39.007Z,16.77
2018-02-22T22:05:06.602Z,16.77
2018-02-22T22:07:34.253Z,15.83
2018-02-22T22:10:01.826Z,16.17
2018-02-22T22:12:29.401Z,17.13
2018-02-22T22:14:56.958Z,17.10
2018-02-22T22:17:24.507Z,16.77
2018-02-22T22:19:52.080Z,17.60
2018-02-22T22:22:19.637Z,16.90
2018-02-22T22:24:47.301Z,16.83
2018-02-22T22:27:16.385Z,17.73
2018-02-22T22:29:43.963Z,16.57
2018-02-22T22:32:11.548Z,17.10
2018-02-22T22:34:39.991Z,17.70
2018-02-22T22:37:07.674Z,17.33
2018-02-22T22:39:36.753Z,16.57
2018-02-22T22:42:04.329Z,17.10
2018-02-22T22:44:31.894Z,15.73
2018-02-22T22:46:59.551Z,16.57
2018-02-22T22:49:27.136Z,16.50
2018-02-22T22:51:55.483Z,16.10
2018-02-22T22:54:23.042Z,16.97
2018-02-22T22:56:50.631Z,16.87
2018-02-22T22:59:18.190Z,17.30
2018-02-22T23:01:47.257Z,16.90
2018-02-22T23:04:14.935Z,16.20
2018-02-22T23:06:42.489Z,16.90
2018-02-22T23:09:10.066Z,16.87
2018-02-22T23:11:37.706Z,16.63
2018-02-22T23:14:05.369Z,16.57
2018-02-22T23:16:32.931Z,17.27
2018-02-22T23:19:00.501Z,15.50
2018-02-22T23:21:28.055Z,15.40
2018-02-22T23:23:55.618Z,15.97
2018-02-22T23:26:23.200Z,15.57
2018-02-22T23:28:50.770Z,16.17
2018-02-22T23:31:19.093Z,15.83
2018-02-22T23:33:46.703Z,15.33
2018-02-22T23:36:14.267Z,15.60
2018-02-22T23:38:41.828Z,15.30
2018-02-22T23:41:11.305Z,15.57
2018-02-22T23:43:38.865Z,15.20
2018-02-22T23:46:06.425Z,15.20
2018-02-22T23:48:33.998Z,14.77
2018-02-22T23:51:01.548Z,13.97
2018-02-22T23:53:29.096Z,13.57
2018-02-22T23:55:56.679Z,14.37
2018-02-22T23:58:24.335Z,14.00
